sensor_id;sensor_type;location;lat;lon;timestamp;temperature;humidity
27224;DHT22;14965;50.660;13.226;2023-08-20T00:01:22;20.00;99.90
27224;DHT22;14965;50.660;13.226;2023-08-20T00:03:51;20.10;99.90
27224;DHT22;14965;50.660;13.226;2023-08-20T00:06:18;20.10;99.90
27224;DHT22;14965;50.660;13.226;2023-08-20T00:08:45;20.10;99.90
27224;DHT22;14965;50.660;13.226;2023-08-20T00:11:12;20.10;99.90
27224;DHT22;14965;50.660;13.226;2023-08-20T00:13:38;20.20;99.90
27224;DHT22;14965;50.660;13.226;2023-08-20T00:16:05;20.20;99.90
27224;DHT22;14965;50.660;13.226;2023-08-20T00:18:33;20.30;99.90
27224;DHT22;14965;50.660;13.226;2023-08-20T00:21:00;20.40;99.90
27224;DHT22;14965;50.660;13.226;2023-08-20T00:23:26;20.40;99.90
27224;DHT22;14965;50.660;13.226;2023-08-20T00:25:53;20.50;99.90
27224;DHT22;14965;50.660;13.226;2023-08-20T00:28:20;20.50;99.90
27224;DHT22;14965;50.660;13.226;2023-08-20T00:30:46;20.40;99.90
27224;DHT22;14965;50.660;13.226;2023-08-20T00:33:12;20.40;99.90
27224;DHT22;14965;50.660;13.226;2023-08-20T00:35:39;20.40;99.90
27224;DHT22;14965;50.660;13.226;2023-08-20T00:38:05;20.40;99.90
27224;DHT22;14965;50.660;13.226;2023-08-20T00:40:31;20.40;99.90
27224;DHT22;14965;50.660;13.226;2023-08-20T00:42:57;20.40;99.90
27224;DHT22;14965;50.660;13.226;2023-08-20T00:45:24;20.50;99.90
27224;DHT22;14965;50.660;13.226;2023-08-20T00:47:50;20.50;99.90
27224;DHT22;14965;50.660;13.226;2023-08-20T00:50:17;20.50;99.90
27224;DHT22;14965;50.660;13.226;2023-08-20T00:52:46;20.50;99.90
27224;DHT22;14965;50.660;13.226;2023-08-20T00:55:12;20.50;99.90
27224;DHT22;14965;50.660;13.226;2023-08-20T00:57:39;20.50;99.90
27224;DHT22;14965;50.660;13.226;2023-08-20T01:00:06;20.60;99.90
27224;DHT22;14965;50.660;13.226;2023-08-20T01:02:34;20.60;99.90
27224;DHT22;14965;50.660;13.226;2023-08-20T01:05:00;20.60;99.90
27224;DHT22;14965;50.660;13.226;2023-08-20T01:07:31;20.50;99.90
27224;DHT22;14965;50.660;13.226;2023-08-20T01:10:09;20.50;99.90
27224;DHT22;14965;50.660;13.226;2023-08-20T01:12:43;20.50;99.90
27224;DHT22;14965;50.660;13.226;2023-08-20T01:15:11;20.50;99.90
27224;DHT22;14965;50.660;13.226;2023-08-20T01:17:37;20.50;99.90
27224;DHT22;14965;50.660;13.226;2023-08-20T01:20:09;20.40;99.90
27224;DHT22;14965;50.660;13.226;2023-08-20T01:22:52;20.40;99.90
27224;DHT22;14965;50.660;13.226;2023-08-20T01:25:45;20.40;99.90
27224;DHT22;14965;50.660;13.226;2023-08-20T01:28:37;20.40;99.90
27224;DHT22;14965;50.660;13.226;2023-08-20T01:31:04;20.40;99.90
27224;DHT22;14965;50.660;13.226;2023-08-20T01:33:31;20.40;99.90
27224;DHT22;14965;50.660;13.226;2023-08-20T01:35:58;20.50;99.90
27224;DHT22;14965;50.660;13.226;2023-08-20T01:38:24;20.50;99.90
27224;DHT22;14965;50.660;13.226;2023-08-20T01:40:50;20.50;99.90
27224;DHT22;14965;50.660;13.226;2023-08-20T01:43:16;20.50;99.90
27224;DHT22;14965;50.660;13.226;2023-08-20T01:45:43;20.50;99.90
27224;DHT22;14965;50.660;13.226;2023-08-20T01:48:09;20.50;99.90
27224;DHT22;14965;50.660;13.226;2023-08-20T01:50:36;20.40;99.90
27224;DHT22;14965;50.660;13.226;2023-08-20T01:53:02;20.40;99.90
27224;DHT22;14965;50.660;13.226;2023-08-20T01:55:29;20.40;99.90
27224;DHT22;14965;50.660;13.226;2023-08-20T01:57:55;20.40;99.90
27224;DHT22;14965;50.660;13.226;2023-08-20T02:00:21;20.30;99.90
27224;DHT22;14965;50.660;13.226;2023-08-20T02:02:48;20.30;99.90
27224;DHT22;14965;50.660;13.226;2023-08-20T02:05:14;20.40;99.90
27224;DHT22;14965;50.660;13.226;2023-08-20T02:07:40;20.40;99.90
27224;DHT22;14965;50.660;13.226;2023-08-20T02:10:07;20.40;99.90
27224;DHT22;14965;50.660;13.226;2023-08-20T02:12:33;20.40;99.90
27224;DHT22;14965;50.660;13.226;2023-08-20T02:14:59;20.40;99.90
27224;DHT22;14965;50.660;13.226;2023-08-20T02:17:25;20.40;99.90
27224;DHT22;14965;50.660;13.226;2023-08-20T02:19:52;20.40;99.90
27224;DHT22;14965;50.660;13.226;2023-08-20T02:22:18;20.40;99.90
27224;DHT22;14965;50.660;13.226;2023-08-20T02:24:44;20.50;99.90
27224;DHT22;14965;50.660;13.226;2023-08-20T02:27:10;20.40;99.90
27224;DHT22;14965;50.660;13.226;2023-08-20T02:29:36;20.50;99.90
27224;DHT22;14965;50.660;13.226;2023-08-20T02:32:02;20.50;99.90
27224;DHT22;14965;50.660;13.226;2023-08-20T02:34:28;20.50;99.90
27224;DHT22;14965;50.660;13.226;2023-08-20T02:36:55;20.40;99.90
27224;DHT22;14965;50.660;13.226;2023-08-20T02:39:21;20.40;99.90
27224;DHT22;14965;50.660;13.226;2023-08-20T02:41:47;20.40;99.90
27224;DHT22;14965;50.660;13.226;2023-08-20T02:44:13;20.30;99.90
27224;DHT22;14965;50.660;13.226;2023-08-20T02:46:39;20.40;99.90
27224;DHT22;14965;50.660;13.226;2023-08-20T02:49:05;20.30;99.90
27224;DHT22;14965;50.660;13.226;2023-08-20T02:51:31;20.20;99.90
27224;DHT22;14965;50.660;13.226;2023-08-20T02:53:58;20.20;99.90
27224;DHT22;14965;50.660;13.226;2023-08-20T02:56:24;20.20;99.90
27224;DHT22;14965;50.660;13.226;2023-08-20T02:58:50;20.20;99.90
27224;DHT22;14965;50.660;13.226;2023-08-20T03:01:19;20.30;99.90
27224;DHT22;14965;50.660;13.226;2023-08-20T03:03:46;20.30;99.90
27224;DHT22;14965;50.660;13.226;2023-08-20T03:06:11;20.30;99.90
27224;DHT22;14965;50.660;13.226;2023-08-20T03:08:37;20.30;99.90
27224;DHT22;14965;50.660;13.226;2023-08-20T03:11:05;20.30;99.90
27224;DHT22;14965;50.660;13.226;2023-08-20T03:13:31;20.20;99.90
27224;DHT22;14965;50.660;13.226;2023-08-20T03:15:57;20.20;99.90
27224;DHT22;14965;50.660;13.226;2023-08-20T03:18:23;20.20;99.90
27224;DHT22;14965;50.660;13.226;2023-08-20T03:20:49;20.20;99.90
27224;DHT22;14965;50.660;13.226;2023-08-20T03:23:14;20.20;99.90
27224;DHT22;14965;50.660;13.226;2023-08-20T03:25:40;20.20;99.90
27224;DHT22;14965;50.660;13.226;2023-08-20T03:28:08;20.20;99.90
27224;DHT22;14965;50.660;13.226;2023-08-20T03:30:34;20.20;99.90
27224;DHT22;14965;50.660;13.226;2023-08-20T03:32:59;20.20;99.90
27224;DHT22;14965;50.660;13.226;2023-08-20T03:35:25;20.20;99.90
27224;DHT22;14965;50.660;13.226;2023-08-20T03:37:51;20.20;99.90
27224;DHT22;14965;50.660;13.226;2023-08-20T03:40:17;20.20;99.90
27224;DHT22;14965;50.660;13.226;2023-08-20T03:42:43;20.20;99.90
27224;DHT22;14965;50.660;13.226;2023-08-20T03:45:11;20.20;99.90
27224;DHT22;14965;50.660;13.226;2023-08-20T03:47:36;20.20;99.90
27224;DHT22;14965;50.660;13.226;2023-08-20T03:50:03;20.20;99.90
27224;DHT22;14965;50.660;13.226;2023-08-20T03:52:29;20.20;99.90
27224;DHT22;14965;50.660;13.226;2023-08-20T03:54:55;20.20;99.90
27224;DHT22;14965;50.660;13.226;2023-08-20T03:57:21;20.20;99.90
27224;DHT22;14965;50.660;13.226;2023-08-20T03:59:47;20.20;99.90
27224;DHT22;14965;50.660;13.226;2023-08-20T04:02:14;20.20;99.90
27224;DHT22;14965;50.660;13.226;2023-08-20T04:04:40;20.20;99.90
27224;DHT22;14965;50.660;13.226;2023-08-20T04:07:06;20.20;99.90
27224;DHT22;14965;50.660;13.226;2023-08-20T04:09:32;20.20;99.90
27224;DHT22;14965;50.660;13.226;2023-08-20T04:11:58;20.20;99.90
27224;DHT22;14965;50.660;13.226;2023-08-20T04:14:24;20.20;99.90
27224;DHT22;14965;50.660;13.226;2023-08-20T04:16:50;20.20;99.90
27224;DHT22;14965;50.660;13.226;2023-08-20T04:19:17;20.20;99.90
27224;DHT22;14965;50.660;13.226;2023-08-20T04:21:43;20.20;99.90
27224;DHT22;14965;50.660;13.226;2023-08-20T04:24:09;20.20;99.90
27224;DHT22;14965;50.660;13.226;2023-08-20T04:26:35;20.20;99.90
27224;DHT22;14965;50.660;13.226;2023-08-20T04:29:01;20.20;99.90
27224;DHT22;14965;50.660;13.226;2023-08-20T04:31:27;20.20;99.90
27224;DHT22;14965;50.660;13.226;2023-08-20T04:33:53;20.20;99.90
27224;DHT22;14965;50.660;13.226;2023-08-20T04:36:20;20.20;99.90
27224;DHT22;14965;50.660;13.226;2023-08-20T04:38:46;20.30;99.90
27224;DHT22;14965;50.660;13.226;2023-08-20T04:41:12;20.30;99.90
27224;DHT22;14965;50.660;13.226;2023-08-20T04:43:38;20.40;99.90
27224;DHT22;14965;50.660;13.226;2023-08-20T04:46:04;20.40;99.90
27224;DHT22;14965;50.660;13.226;2023-08-20T04:48:30;20.50;99.90
27224;DHT22;14965;50.660;13.226;2023-08-20T04:50:56;20.50;99.90
27224;DHT22;14965;50.660;13.226;2023-08-20T04:53:23;20.60;99.90
27224;DHT22;14965;50.660;13.226;2023-08-20T04:55:49;20.70;99.90
27224;DHT22;14965;50.660;13.226;2023-08-20T04:58:15;20.70;99.90
27224;DHT22;14965;50.660;13.226;2023-08-20T05:00:42;20.80;99.90
27224;DHT22;14965;50.660;13.226;2023-08-20T05:03:08;20.80;99.90
27224;DHT22;14965;50.660;13.226;2023-08-20T05:05:34;20.80;99.90
27224;DHT22;14965;50.660;13.226;2023-08-20T05:08:00;20.90;99.90
27224;DHT22;14965;50.660;13.226;2023-08-20T05:10:27;20.90;99.90
27224;DHT22;14965;50.660;13.226;2023-08-20T05:12:53;21.00;99.90
27224;DHT22;14965;50.660;13.226;2023-08-20T05:15:19;21.00;99.90
27224;DHT22;14965;50.660;13.226;2023-08-20T05:17:45;21.00;99.90
27224;DHT22;14965;50.660;13.226;2023-08-20T05:20:11;21.10;99.90
27224;DHT22;14965;50.660;13.226;2023-08-20T05:22:37;21.10;99.90
27224;DHT22;14965;50.660;13.226;2023-08-20T05:25:03;21.20;99.90
27224;DHT22;14965;50.660;13.226;2023-08-20T05:27:30;21.30;99.90
27224;DHT22;14965;50.660;13.226;2023-08-20T05:29:56;21.30;99.90
27224;DHT22;14965;50.660;13.226;2023-08-20T05:32:22;21.40;99.90
27224;DHT22;14965;50.660;13.226;2023-08-20T05:34:48;21.30;99.90
27224;DHT22;14965;50.660;13.226;2023-08-20T05:37:14;21.40;99.90
27224;DHT22;14965;50.660;13.226;2023-08-20T05:39:41;21.50;99.90
27224;DHT22;14965;50.660;13.226;2023-08-20T05:42:08;21.50;99.90
27224;DHT22;14965;50.660;13.226;2023-08-20T05:44:36;21.60;99.90
27224;DHT22;14965;50.660;13.226;2023-08-20T05:47:02;21.60;99.90
27224;DHT22;14965;50.660;13.226;2023-08-20T05:49:28;21.60;99.90
27224;DHT22;14965;50.660;13.226;2023-08-20T05:51:54;21.80;99.90
27224;DHT22;14965;50.660;13.226;2023-08-20T05:54:20;21.80;99.90
27224;DHT22;14965;50.660;13.226;2023-08-20T05:56:46;21.90;99.90
27224;DHT22;14965;50.660;13.226;2023-08-20T05:59:12;21.90;99.90
27224;DHT22;14965;50.660;13.226;2023-08-20T06:01:39;22.00;99.90
27224;DHT22;14965;50.660;13.226;2023-08-20T06:04:05;22.10;99.90
27224;DHT22;14965;50.660;13.226;2023-08-20T06:06:31;22.30;99.90
27224;DHT22;14965;50.660;13.226;2023-08-20T06:08:57;22.40;99.90
27224;DHT22;14965;50.660;13.226;2023-08-20T06:11:23;22.50;99.90
27224;DHT22;14965;50.660;13.226;2023-08-20T06:13:49;22.50;99.90
27224;DHT22;14965;50.660;13.226;2023-08-20T06:16:15;22.50;99.90
27224;DHT22;14965;50.660;13.226;2023-08-20T06:18:42;22.40;99.90
27224;DHT22;14965;50.660;13.226;2023-08-20T06:21:08;22.20;99.90
27224;DHT22;14965;50.660;13.226;2023-08-20T06:23:34;22.10;99.90
27224;DHT22;14965;50.660;13.226;2023-08-20T06:26:00;22.00;99.90
27224;DHT22;14965;50.660;13.226;2023-08-20T06:28:26;22.00;99.90
27224;DHT22;14965;50.660;13.226;2023-08-20T06:30:51;22.00;99.90
27224;DHT22;14965;50.660;13.226;2023-08-20T06:33:17;22.10;99.90
27224;DHT22;14965;50.660;13.226;2023-08-20T06:35:45;22.10;99.90
27224;DHT22;14965;50.660;13.226;2023-08-20T06:38:10;22.10;99.90
27224;DHT22;14965;50.660;13.226;2023-08-20T06:40:36;22.10;99.90
27224;DHT22;14965;50.660;13.226;2023-08-20T06:43:02;22.20;99.90
27224;DHT22;14965;50.660;13.226;2023-08-20T06:45:29;22.20;99.90
27224;DHT22;14965;50.660;13.226;2023-08-20T06:47:55;22.40;99.90
27224;DHT22;14965;50.660;13.226;2023-08-20T06:50:21;22.60;99.90
27224;DHT22;14965;50.660;13.226;2023-08-20T06:52:48;22.70;99.90
27224;DHT22;14965;50.660;13.226;2023-08-20T06:55:14;22.90;99.90
27224;DHT22;14965;50.660;13.226;2023-08-20T06:57:40;23.10;99.90
27224;DHT22;14965;50.660;13.226;2023-08-20T07:00:07;23.20;99.90
27224;DHT22;14965;50.660;13.226;2023-08-20T07:02:33;23.30;99.90
27224;DHT22;14965;50.660;13.226;2023-08-20T07:04:59;23.30;99.90
27224;DHT22;14965;50.660;13.226;2023-08-20T07:07:25;23.30;99.90
27224;DHT22;14965;50.660;13.226;2023-08-20T07:09:52;23.30;99.90
27224;DHT22;14965;50.660;13.226;2023-08-20T07:12:18;23.30;99.90
27224;DHT22;14965;50.660;13.226;2023-08-20T07:14:44;23.30;99.90
27224;DHT22;14965;50.660;13.226;2023-08-20T07:17:10;23.30;99.90
27224;DHT22;14965;50.660;13.226;2023-08-20T07:19:36;23.40;99.90
27224;DHT22;14965;50.660;13.226;2023-08-20T07:22:02;23.50;99.90
27224;DHT22;14965;50.660;13.226;2023-08-20T07:24:28;23.70;99.90
27224;DHT22;14965;50.660;13.226;2023-08-20T07:26:55;23.90;99.90
27224;DHT22;14965;50.660;13.226;2023-08-20T07:29:21;24.00;99.90
27224;DHT22;14965;50.660;13.226;2023-08-20T07:31:47;24.10;99.90
27224;DHT22;14965;50.660;13.226;2023-08-20T07:34:13;24.10;99.90
27224;DHT22;14965;50.660;13.226;2023-08-20T07:36:39;24.00;99.90
27224;DHT22;14965;50.660;13.226;2023-08-20T07:39:05;24.10;99.90
27224;DHT22;14965;50.660;13.226;2023-08-20T07:41:31;24.10;99.90
27224;DHT22;14965;50.660;13.226;2023-08-20T07:43:58;24.10;99.90
27224;DHT22;14965;50.660;13.226;2023-08-20T07:46:24;24.10;99.90
27224;DHT22;14965;50.660;13.226;2023-08-20T07:48:50;24.20;99.90
27224;DHT22;14965;50.660;13.226;2023-08-20T07:51:16;24.30;99.90
27224;DHT22;14965;50.660;13.226;2023-08-20T07:53:42;24.40;99.90
27224;DHT22;14965;50.660;13.226;2023-08-20T07:56:07;24.60;99.90
27224;DHT22;14965;50.660;13.226;2023-08-20T07:58:33;24.60;99.90
27224;DHT22;14965;50.660;13.226;2023-08-20T08:01:01;24.70;99.90
27224;DHT22;14965;50.660;13.226;2023-08-20T08:03:27;24.80;99.90
27224;DHT22;14965;50.660;13.226;2023-08-20T08:05:53;24.80;99.90
27224;DHT22;14965;50.660;13.226;2023-08-20T08:08:20;24.90;99.90
27224;DHT22;14965;50.660;13.226;2023-08-20T08:10:46;25.10;99.90
27224;DHT22;14965;50.660;13.226;2023-08-20T08:13:13;25.10;99.90
27224;DHT22;14965;50.660;13.226;2023-08-20T08:15:40;25.20;99.90
27224;DHT22;14965;50.660;13.226;2023-08-20T08:18:08;25.40;99.90
27224;DHT22;14965;50.660;13.226;2023-08-20T08:20:34;25.20;99.90
27224;DHT22;14965;50.660;13.226;2023-08-20T08:23:00;25.10;99.90
27224;DHT22;14965;50.660;13.226;2023-08-20T08:25:26;25.20;99.90
27224;DHT22;14965;50.660;13.226;2023-08-20T08:27:53;25.20;99.90
27224;DHT22;14965;50.660;13.226;2023-08-20T08:30:19;25.30;99.90
27224;DHT22;14965;50.660;13.226;2023-08-20T08:32:45;25.50;99.90
27224;DHT22;14965;50.660;13.226;2023-08-20T08:35:12;25.60;99.90
27224;DHT22;14965;50.660;13.226;2023-08-20T08:37:38;25.70;99.90
27224;DHT22;14965;50.660;13.226;2023-08-20T08:40:05;25.60;99.90
27224;DHT22;14965;50.660;13.226;2023-08-20T08:42:33;25.60;99.90
27224;DHT22;14965;50.660;13.226;2023-08-20T08:44:59;25.50;99.90
27224;DHT22;14965;50.660;13.226;2023-08-20T08:47:26;25.40;99.90
27224;DHT22;14965;50.660;13.226;2023-08-20T08:49:55;25.50;99.90
27224;DHT22;14965;50.660;13.226;2023-08-20T08:52:23;25.30;99.90
27224;DHT22;14965;50.660;13.226;2023-08-20T08:54:50;25.00;99.90
27224;DHT22;14965;50.660;13.226;2023-08-20T08:57:19;24.70;99.90
27224;DHT22;14965;50.660;13.226;2023-08-20T08:59:45;24.80;99.90
27224;DHT22;14965;50.660;13.226;2023-08-20T09:02:12;25.00;99.90
27224;DHT22;14965;50.660;13.226;2023-08-20T09:04:39;25.30;99.90
27224;DHT22;14965;50.660;13.226;2023-08-20T09:07:05;25.60;99.90
27224;DHT22;14965;50.660;13.226;2023-08-20T09:09:41;25.90;99.90
27224;DHT22;14965;50.660;13.226;2023-08-20T09:12:12;26.20;99.90
27224;DHT22;14965;50.660;13.226;2023-08-20T09:14:39;26.30;99.90
27224;DHT22;14965;50.660;13.226;2023-08-20T09:17:11;26.30;99.90
27224;DHT22;14965;50.660;13.226;2023-08-20T09:19:37;26.20;99.90
27224;DHT22;14965;50.660;13.226;2023-08-20T09:22:04;26.30;99.90
27224;DHT22;14965;50.660;13.226;2023-08-20T09:24:33;26.40;99.90
27224;DHT22;14965;50.660;13.226;2023-08-20T09:27:03;26.50;99.90
27224;DHT22;14965;50.660;13.226;2023-08-20T09:29:32;26.50;99.90
27224;DHT22;14965;50.660;13.226;2023-08-20T09:32:00;26.60;99.90
27224;DHT22;14965;50.660;13.226;2023-08-20T09:34:36;26.70;99.90
27224;DHT22;14965;50.660;13.226;2023-08-20T09:37:02;26.70;99.90
27224;DHT22;14965;50.660;13.226;2023-08-20T09:39:28;26.80;99.90
27224;DHT22;14965;50.660;13.226;2023-08-20T09:41:55;27.00;99.90
27224;DHT22;14965;50.660;13.226;2023-08-20T09:44:26;27.20;99.90
27224;DHT22;14965;50.660;13.226;2023-08-20T09:46:58;27.40;99.90
27224;DHT22;14965;50.660;13.226;2023-08-20T09:49:28;27.40;99.90
27224;DHT22;14965;50.660;13.226;2023-08-20T09:51:57;27.40;99.90
27224;DHT22;14965;50.660;13.226;2023-08-20T09:54:29;27.20;99.90
27224;DHT22;14965;50.660;13.226;2023-08-20T09:57:07;26.90;99.90
27224;DHT22;14965;50.660;13.226;2023-08-20T09:59:40;26.50;99.90
27224;DHT22;14965;50.660;13.226;2023-08-20T10:02:08;26.20;99.90
27224;DHT22;14965;50.660;13.226;2023-08-20T10:04:39;25.90;99.90
27224;DHT22;14965;50.660;13.226;2023-08-20T10:07:06;25.70;99.90
27224;DHT22;14965;50.660;13.226;2023-08-20T10:09:33;25.30;99.90
27224;DHT22;14965;50.660;13.226;2023-08-20T10:12:00;25.20;99.90
27224;DHT22;14965;50.660;13.226;2023-08-20T10:14:27;25.00;99.90
27224;DHT22;14965;50.660;13.226;2023-08-20T10:16:55;25.20;99.90
27224;DHT22;14965;50.660;13.226;2023-08-20T10:19:22;25.40;99.90
27224;DHT22;14965;50.660;13.226;2023-08-20T10:21:52;25.40;99.90
27224;DHT22;14965;50.660;13.226;2023-08-20T10:24:18;25.60;99.90
27224;DHT22;14965;50.660;13.226;2023-08-20T10:26:45;25.60;99.90
27224;DHT22;14965;50.660;13.226;2023-08-20T10:29:35;25.70;99.90
27224;DHT22;14965;50.660;13.226;2023-08-20T10:32:04;25.90;99.90
27224;DHT22;14965;50.660;13.226;2023-08-20T10:34:36;25.90;99.90
27224;DHT22;14965;50.660;13.226;2023-08-20T10:37:02;25.90;99.90
27224;DHT22;14965;50.660;13.226;2023-08-20T10:39:28;26.10;99.90
27224;DHT22;14965;50.660;13.226;2023-08-20T10:42:08;26.20;99.90
27224;DHT22;14965;50.660;13.226;2023-08-20T10:45:00;26.20;99.90
27224;DHT22;14965;50.660;13.226;2023-08-20T10:47:36;26.20;99.90
27224;DHT22;14965;50.660;13.226;2023-08-20T10:50:08;26.20;99.90
27224;DHT22;14965;50.660;13.226;2023-08-20T10:52:38;26.30;99.90
27224;DHT22;14965;50.660;13.226;2023-08-20T10:55:06;26.40;99.90
27224;DHT22;14965;50.660;13.226;2023-08-20T10:57:34;26.20;99.90
27224;DHT22;14965;50.660;13.226;2023-08-20T11:00:02;26.30;99.90
27224;DHT22;14965;50.660;13.226;2023-08-20T11:02:30;26.50;99.90
27224;DHT22;14965;50.660;13.226;2023-08-20T11:04:58;26.50;99.90
27224;DHT22;14965;50.660;13.226;2023-08-20T11:07:25;26.50;99.90
27224;DHT22;14965;50.660;13.226;2023-08-20T11:09:51;26.50;99.90
27224;DHT22;14965;50.660;13.226;2023-08-20T11:12:20;26.60;99.90
27224;DHT22;14965;50.660;13.226;2023-08-20T11:14:46;26.70;99.90
27224;DHT22;14965;50.660;13.226;2023-08-20T11:17:13;26.70;99.90
27224;DHT22;14965;50.660;13.226;2023-08-20T11:19:40;26.80;99.90
27224;DHT22;14965;50.660;13.226;2023-08-20T11:22:08;26.80;99.90
27224;DHT22;14965;50.660;13.226;2023-08-20T11:24:34;27.00;99.90
27224;DHT22;14965;50.660;13.226;2023-08-20T11:27:00;27.10;99.90
27224;DHT22;14965;50.660;13.226;2023-08-20T11:29:26;27.10;99.90
27224;DHT22;14965;50.660;13.226;2023-08-20T11:32:00;27.30;99.90
27224;DHT22;14965;50.660;13.226;2023-08-20T11:34:28;27.40;99.90
27224;DHT22;14965;50.660;13.226;2023-08-20T11:36:55;27.40;99.90
27224;DHT22;14965;50.660;13.226;2023-08-20T11:42:07;27.40;99.90
27224;DHT22;14965;50.660;13.226;2023-08-20T11:44:43;27.20;99.90
27224;DHT22;14965;50.660;13.226;2023-08-20T11:47:13;27.20;99.90
27224;DHT22;14965;50.660;13.226;2023-08-20T11:49:40;27.10;99.90
27224;DHT22;14965;50.660;13.226;2023-08-20T11:52:06;27.10;99.90
27224;DHT22;14965;50.660;13.226;2023-08-20T11:54:32;27.20;99.90
27224;DHT22;14965;50.660;13.226;2023-08-20T11:57:02;27.20;99.90
27224;DHT22;14965;50.660;13.226;2023-08-20T11:59:31;27.20;99.90
27224;DHT22;14965;50.660;13.226;2023-08-20T12:02:00;27.20;99.90
27224;DHT22;14965;50.660;13.226;2023-08-20T12:04:29;27.20;99.90
27224;DHT22;14965;50.660;13.226;2023-08-20T12:07:03;27.30;99.90
27224;DHT22;14965;50.660;13.226;2023-08-20T12:09:30;27.40;99.90
27224;DHT22;14965;50.660;13.226;2023-08-20T12:11:56;27.40;99.90
27224;DHT22;14965;50.660;13.226;2023-08-20T12:14:22;27.40;99.90
27224;DHT22;14965;50.660;13.226;2023-08-20T12:16:53;27.30;99.90
27224;DHT22;14965;50.660;13.226;2023-08-20T12:19:19;27.20;99.90
27224;DHT22;14965;50.660;13.226;2023-08-20T12:21:45;27.20;99.90
27224;DHT22;14965;50.660;13.226;2023-08-20T12:24:12;27.20;99.90
27224;DHT22;14965;50.660;13.226;2023-08-20T12:26:38;27.30;99.90
27224;DHT22;14965;50.660;13.226;2023-08-20T12:29:06;27.40;99.90
27224;DHT22;14965;50.660;13.226;2023-08-20T12:31:32;27.60;99.90
27224;DHT22;14965;50.660;13.226;2023-08-20T12:34:00;27.70;99.90
27224;DHT22;14965;50.660;13.226;2023-08-20T12:36:28;27.80;99.90
27224;DHT22;14965;50.660;13.226;2023-08-20T12:38:54;27.90;99.90
27224;DHT22;14965;50.660;13.226;2023-08-20T12:41:20;27.80;99.90
27224;DHT22;14965;50.660;13.226;2023-08-20T12:43:46;27.80;99.90
27224;DHT22;14965;50.660;13.226;2023-08-20T12:46:12;27.90;99.90
27224;DHT22;14965;50.660;13.226;2023-08-20T12:48:38;27.90;99.90
27224;DHT22;14965;50.660;13.226;2023-08-20T12:51:06;28.00;99.90
27224;DHT22;14965;50.660;13.226;2023-08-20T12:53:32;27.90;99.90
27224;DHT22;14965;50.660;13.226;2023-08-20T12:55:58;28.00;99.90
27224;DHT22;14965;50.660;13.226;2023-08-20T12:58:24;28.00;99.90
27224;DHT22;14965;50.660;13.226;2023-08-20T13:00:50;28.00;99.90
27224;DHT22;14965;50.660;13.226;2023-08-20T13:03:16;28.00;99.90
27224;DHT22;14965;50.660;13.226;2023-08-20T13:05:43;28.10;99.90
27224;DHT22;14965;50.660;13.226;2023-08-20T13:08:13;28.10;99.90
27224;DHT22;14965;50.660;13.226;2023-08-20T13:10:40;28.00;99.90
27224;DHT22;14965;50.660;13.226;2023-08-20T13:13:09;28.00;99.90
27224;DHT22;14965;50.660;13.226;2023-08-20T13:15:36;28.10;99.90
27224;DHT22;14965;50.660;13.226;2023-08-20T13:18:03;28.10;99.90
27224;DHT22;14965;50.660;13.226;2023-08-20T13:20:30;28.20;99.90
27224;DHT22;14965;50.660;13.226;2023-08-20T13:22:56;28.30;99.90
27224;DHT22;14965;50.660;13.226;2023-08-20T13:25:23;28.40;99.90
27224;DHT22;14965;50.660;13.226;2023-08-20T13:27:49;28.40;99.90
27224;DHT22;14965;50.660;13.226;2023-08-20T13:30:15;28.40;99.90
27224;DHT22;14965;50.660;13.226;2023-08-20T13:32:41;28.40;99.90
27224;DHT22;14965;50.660;13.226;2023-08-20T13:35:07;28.30;99.90
27224;DHT22;14965;50.660;13.226;2023-08-20T13:37:34;28.40;99.90
27224;DHT22;14965;50.660;13.226;2023-08-20T13:40:00;28.30;99.90
27224;DHT22;14965;50.660;13.226;2023-08-20T13:42:27;28.20;99.90
27224;DHT22;14965;50.660;13.226;2023-08-20T13:44:53;28.10;99.90
27224;DHT22;14965;50.660;13.226;2023-08-20T13:47:19;28.00;99.90
27224;DHT22;14965;50.660;13.226;2023-08-20T13:49:45;27.90;99.90
27224;DHT22;14965;50.660;13.226;2023-08-20T13:52:11;27.80;99.90
27224;DHT22;14965;50.660;13.226;2023-08-20T13:54:37;27.70;99.90
27224;DHT22;14965;50.660;13.226;2023-08-20T13:57:03;27.50;99.90
27224;DHT22;14965;50.660;13.226;2023-08-20T13:59:31;27.30;99.90
27224;DHT22;14965;50.660;13.226;2023-08-20T14:01:57;27.20;99.90
27224;DHT22;14965;50.660;13.226;2023-08-20T14:04:24;27.20;99.90
27224;DHT22;14965;50.660;13.226;2023-08-20T14:06:50;27.20;99.90
27224;DHT22;14965;50.660;13.226;2023-08-20T14:09:16;27.20;99.90
27224;DHT22;14965;50.660;13.226;2023-08-20T14:11:42;27.30;99.90
27224;DHT22;14965;50.660;13.226;2023-08-20T14:14:07;27.30;99.90
27224;DHT22;14965;50.660;13.226;2023-08-20T14:16:35;27.30;99.90
27224;DHT22;14965;50.660;13.226;2023-08-20T14:19:01;27.30;99.90
27224;DHT22;14965;50.660;13.226;2023-08-20T14:21:27;27.20;99.90
27224;DHT22;14965;50.660;13.226;2023-08-20T14:23:53;27.20;99.90
27224;DHT22;14965;50.660;13.226;2023-08-20T14:26:19;27.20;99.90
27224;DHT22;14965;50.660;13.226;2023-08-20T14:28:44;27.20;99.90
27224;DHT22;14965;50.660;13.226;2023-08-20T14:31:10;27.20;99.90
27224;DHT22;14965;50.660;13.226;2023-08-20T14:33:38;27.10;99.90
27224;DHT22;14965;50.660;13.226;2023-08-20T14:36:04;27.10;99.90
27224;DHT22;14965;50.660;13.226;2023-08-20T14:38:30;27.10;99.90
27224;DHT22;14965;50.660;13.226;2023-08-20T14:40:59;27.10;99.90
27224;DHT22;14965;50.660;13.226;2023-08-20T14:43:26;27.00;99.90
27224;DHT22;14965;50.660;13.226;2023-08-20T14:45:52;26.90;99.90
27224;DHT22;14965;50.660;13.226;2023-08-20T14:48:18;26.90;99.90
27224;DHT22;14965;50.660;13.226;2023-08-20T14:50:45;27.00;99.90
27224;DHT22;14965;50.660;13.226;2023-08-20T14:53:11;27.00;99.90
27224;DHT22;14965;50.660;13.226;2023-08-20T14:55:37;26.60;99.90
27224;DHT22;14965;50.660;13.226;2023-08-20T14:58:03;26.20;99.90
27224;DHT22;14965;50.660;13.226;2023-08-20T15:00:29;26.10;99.90
27224;DHT22;14965;50.660;13.226;2023-08-20T15:02:57;26.00;99.90
27224;DHT22;14965;50.660;13.226;2023-08-20T15:05:23;26.10;99.90
27224;DHT22;14965;50.660;13.226;2023-08-20T15:07:50;26.10;99.90
27224;DHT22;14965;50.660;13.226;2023-08-20T15:10:16;26.00;99.90
27224;DHT22;14965;50.660;13.226;2023-08-20T15:12:42;25.70;99.90
27224;DHT22;14965;50.660;13.226;2023-08-20T15:15:08;25.40;99.90
27224;DHT22;14965;50.660;13.226;2023-08-20T15:17:35;25.30;99.90